createdAt,value
2019-05-30T00:01:38.102Z,12.60
2019-05-30T00:04:15.644Z,12.80
2019-05-30T00:06:54.172Z,13.70
2019-05-30T00:12:12.148Z,13.40
2019-05-30T00:14:51.599Z,12.20
2019-05-30T00:17:29.381Z,12.90
2019-05-30T00:20:07.672Z,13.00
2019-05-30T00:22:46.432Z,13.20
2019-05-30T00:25:25.335Z,12.80
2019-05-30T00:28:05.096Z,13.20
2019-05-30T00:30:42.783Z,13.30
2019-05-30T00:35:57.589Z,13.90
2019-05-30T00:41:09.978Z,13.30
2019-05-30T00:43:51.535Z,13.70
2019-05-30T00:46:30.351Z,13.50
2019-05-30T00:49:09.906Z,13.70
2019-05-30T00:54:23.508Z,13.70
2019-05-30T00:57:01.192Z,14.20
2019-05-30T00:59:38.659Z,13.60
2019-05-30T01:02:16.225Z,14.30
2019-05-30T01:04:53.771Z,14.00
2019-05-30T01:07:33.419Z,14.10
2019-05-30T01:10:12.041Z,14.40
2019-05-30T01:12:51.989Z,14.50
2019-05-30T01:15:29.557Z,14.40
2019-05-30T01:18:07.352Z,14.00
2019-05-30T01:20:46.750Z,13.90
2019-05-30T01:23:24.196Z,14.30
2019-05-30T01:26:03.465Z,14.50
2019-05-30T01:28:40.964Z,14.30
2019-05-30T01:31:21.190Z,14.40
2019-05-30T01:33:59.406Z,14.70
2019-05-30T01:41:51.209Z,14.50
2019-05-30T01:47:06.269Z,14.80
2019-05-30T01:49:44.334Z,14.90
2019-05-30T01:52:21.836Z,15.10
2019-05-30T01:55:00.393Z,15.10
2019-05-30T01:57:41.067Z,15.10
2019-05-30T02:00:21.725Z,15.00
2019-05-30T02:02:59.232Z,15.10
2019-05-30T02:05:36.683Z,15.20
2019-05-30T02:13:25.691Z,15.30
2019-05-30T02:16:05.716Z,15.30
2019-05-30T02:21:20.426Z,15.40
2019-05-30T02:26:34.432Z,15.50
2019-05-30T02:29:15.248Z,16.00
2019-05-30T02:34:27.666Z,16.10
2019-05-30T02:37:07.782Z,16.40
2019-05-30T02:39:46.317Z,16.00
2019-05-30T02:45:03.433Z,16.40
2019-05-30T02:47:40.944Z,16.40
2019-05-30T02:50:18.713Z,16.30
2019-05-30T02:52:57.367Z,16.60
2019-05-30T02:55:34.765Z,16.80
2019-05-30T02:58:14.007Z,16.80
2019-05-30T03:00:51.381Z,16.80
2019-05-30T03:03:30.751Z,16.90
2019-05-30T03:06:13.124Z,17.00
2019-05-30T03:08:48.675Z,17.00
2019-05-30T03:11:26.320Z,16.90
2019-05-30T03:16:40.172Z,17.20
2019-05-30T03:19:18.083Z,17.60
2019-05-30T03:21:55.795Z,17.60
2019-05-30T03:24:35.111Z,17.60
2019-05-30T03:29:52.073Z,17.70
2019-05-30T03:33:02.339Z,17.40
2019-05-30T03:37:45.919Z,17.60
2019-05-30T03:40:25.725Z,17.90
2019-05-30T03:45:39.938Z,17.60
2019-05-30T03:53:31.511Z,17.80
2019-05-30T03:56:16.198Z,17.90
2019-05-30T04:01:40.353Z,18.10
2019-05-30T04:04:27.272Z,18.40
2019-05-30T04:09:43.657Z,18.40
2019-05-30T04:12:47.093Z,18.50
2019-05-30T04:15:38.531Z,18.50
2019-05-30T04:18:16.412Z,18.60
2019-05-30T04:20:54.762Z,18.30
2019-05-30T04:23:34.009Z,18.40
2019-05-30T04:26:13.684Z,18.30
2019-05-30T04:31:28.371Z,18.80
2019-05-30T04:34:06.073Z,18.70
2019-05-30T04:36:43.713Z,18.80
2019-05-30T04:39:23.475Z,18.80
2019-05-30T04:42:02.599Z,18.90
2019-05-30T04:44:46.690Z,18.90
2019-05-30T04:47:28.465Z,18.80
2019-05-30T04:50:10.130Z,18.90
2019-05-30T04:52:49.785Z,19.10
2019-05-30T04:55:29.437Z,19.40
2019-05-30T04:58:08.144Z,19.40
2019-05-30T05:00:46.085Z,19.50
2019-05-30T05:03:44.454Z,19.20
2019-05-30T05:08:40.936Z,19.20
2019-05-30T05:11:20.856Z,19.10
2019-05-30T05:13:57.205Z,19.30
2019-05-30T05:16:36.297Z,19.90
2019-05-30T05:21:50.723Z,20.20
2019-05-30T05:27:04.929Z,20.20
2019-05-30T05:29:46.337Z,20.40
2019-05-30T05:32:24.627Z,20.30
2019-05-30T05:35:04.185Z,20.00
2019-05-30T05:37:41.884Z,19.80
2019-05-30T05:40:22.281Z,20.00
2019-05-30T05:43:01.491Z,19.90
2019-05-30T05:48:18.374Z,20.40
2019-05-30T05:56:09.274Z,20.00
2019-05-30T05:58:48.624Z,19.60
2019-05-30T06:01:29.944Z,20.10
2019-05-30T06:04:13.136Z,20.00
2019-05-30T06:06:45.494Z,19.80
2019-05-30T06:11:58.451Z,19.80
2019-05-30T06:14:37.977Z,19.90
2019-05-30T06:19:52.437Z,20.10
2019-05-30T06:22:30.027Z,19.50
2019-05-30T06:25:11.865Z,19.30
2019-05-30T06:27:52.439Z,19.30
2019-05-30T06:30:30.425Z,18.90
2019-05-30T06:33:07.975Z,18.40
2019-05-30T06:35:47.530Z,18.10
2019-05-30T06:38:25.268Z,17.20
2019-05-30T06:41:04.971Z,17.40
2019-05-30T06:43:42.846Z,16.60
2019-05-30T06:46:22.056Z,16.30
2019-05-30T06:48:59.641Z,16.70
2019-05-30T06:51:37.052Z,15.80
2019-05-30T06:56:49.330Z,15.60
2019-05-30T06:59:27.591Z,16.00
2019-05-30T07:02:05.283Z,15.50
2019-05-30T07:09:55.047Z,15.60
2019-05-30T07:12:34.350Z,14.90
2019-05-30T07:15:12.697Z,14.90
2019-05-30T07:20:26.120Z,13.80
2019-05-30T07:23:05.123Z,14.70
2019-05-30T07:25:44.583Z,14.30
2019-05-30T07:36:11.199Z,14.30
2019-05-30T07:44:07.891Z,14.30
2019-05-30T07:46:45.579Z,14.50
2019-05-30T07:49:26.147Z,14.10
2019-05-30T07:52:04.747Z,14.40
2019-05-30T07:57:22.979Z,13.90
2019-05-30T08:00:03.589Z,13.70
2019-05-30T08:02:41.008Z,13.70
2019-05-30T08:05:24.653Z,14.10
2019-05-30T08:07:59.767Z,13.40
2019-05-30T08:10:38.609Z,13.70
2019-05-30T08:15:52.453Z,13.20
2019-05-30T08:18:29.912Z,13.40
2019-05-30T08:21:09.975Z,13.30
2019-05-30T08:23:55.212Z,14.00
2019-05-30T08:26:34.229Z,13.00
2019-05-30T08:31:46.962Z,12.60
2019-05-30T08:39:37.284Z,12.80
2019-05-30T08:42:15.256Z,12.50
2019-05-30T08:44:52.683Z,13.00
2019-05-30T08:47:30.150Z,12.90
2019-05-30T08:50:12.442Z,12.70
2019-05-30T08:58:02.185Z,12.50
2019-05-30T09:00:41.452Z,12.40
2019-05-30T09:03:19.977Z,12.50
2019-05-30T09:08:33.412Z,12.40
2019-05-30T09:11:12.507Z,12.30
2019-05-30T09:16:28.159Z,12.40
2019-05-30T09:19:09.672Z,12.20
2019-05-30T09:21:48.672Z,12.10
2019-05-30T09:24:27.377Z,12.40
2019-05-30T09:27:07.105Z,12.20
2019-05-30T09:29:46.645Z,12.00
2019-05-30T09:32:24.256Z,12.00
2019-05-30T09:37:44.010Z,11.80
2019-05-30T09:43:06.376Z,12.00
2019-05-30T09:48:22.672Z,11.80
2019-05-30T09:51:00.493Z,12.40
2019-05-30T09:53:37.975Z,11.60
2019-05-30T10:02:44.736Z,11.90
2019-05-30T10:05:25.085Z,12.10
2019-05-30T10:08:03.168Z,11.50
2019-05-30T10:10:40.866Z,11.90
2019-05-30T10:13:19.697Z,12.10
2019-05-30T10:16:04.209Z,11.50
2019-05-30T10:18:49.018Z,11.40
2019-05-30T10:21:23.364Z,11.70
2019-05-30T10:26:43.032Z,11.70
2019-05-30T10:29:20.895Z,11.50
2019-05-30T10:32:00.500Z,11.60
2019-05-30T10:37:16.466Z,11.30
2019-05-30T10:40:02.132Z,11.60
2019-05-30T10:42:40.034Z,11.20
2019-05-30T10:45:19.627Z,11.80
2019-05-30T10:47:57.519Z,11.50
2019-05-30T10:50:35.333Z,11.20
2019-05-30T10:53:14.360Z,11.30
2019-05-30T10:56:01.008Z,11.20
2019-05-30T10:58:38.578Z,11.40
2019-05-30T11:01:19.371Z,11.10
2019-05-30T11:03:58.704Z,11.00
2019-05-30T11:09:22.252Z,11.90
2019-05-30T11:12:04.612Z,11.20
2019-05-30T11:14:42.211Z,11.80
2019-05-30T11:17:19.805Z,11.00
2019-05-30T11:20:02.414Z,11.10
2019-05-30T11:22:41.946Z,11.00
2019-05-30T11:27:56.777Z,11.30
2019-05-30T11:33:12.143Z,11.30
2019-05-30T11:40:59.899Z,11.10
2019-05-30T11:43:37.546Z,10.80
2019-05-30T11:46:16.442Z,11.20
2019-05-30T11:48:57.889Z,11.00
2019-05-30T11:51:36.759Z,10.90
2019-05-30T11:54:16.031Z,10.80
2019-05-30T11:56:58.095Z,10.70
2019-05-30T11:59:37.076Z,10.50
2019-05-30T12:02:18.404Z,10.80
2019-05-30T12:04:56.651Z,10.70
2019-05-30T12:10:10.860Z,10.80
2019-05-30T12:12:51.083Z,10.80
2019-05-30T12:18:03.553Z,10.20
2019-05-30T12:20:41.059Z,10.90
2019-05-30T12:23:20.916Z,10.20
2019-05-30T12:25:58.538Z,10.60
2019-05-30T12:31:14.004Z,10.70
2019-05-30T12:33:52.307Z,11.10
2019-05-30T12:36:29.849Z,10.30
2019-05-30T12:39:08.949Z,10.80
2019-05-30T12:41:46.406Z,10.50
2019-05-30T12:44:23.804Z,10.10
2019-05-30T12:47:03.800Z,10.70
2019-05-30T12:49:41.337Z,11.10
2019-05-30T12:52:21.245Z,10.50
2019-05-30T12:55:00.885Z,11.00
2019-05-30T12:57:38.500Z,10.30
2019-05-30T13:02:54.613Z,10.60
2019-05-30T13:05:32.269Z,10.30
2019-05-30T13:08:20.543Z,10.60
2019-05-30T13:13:26.114Z,10.60
2019-05-30T13:16:07.145Z,10.30
2019-05-30T13:18:45.244Z,10.50
2019-05-30T13:21:20.860Z,10.50
2019-05-30T13:23:59.571Z,10.60
2019-05-30T13:26:37.052Z,10.50
2019-05-30T13:29:15.897Z,10.30
2019-05-30T13:31:53.417Z,10.10
2019-05-30T13:37:08.239Z,10.10
2019-05-30T13:42:24.461Z,10.40
2019-05-30T13:45:04.072Z,10.30
2019-05-30T13:47:52.030Z,10.00
2019-05-30T13:50:29.549Z,10.50
2019-05-30T13:53:07.429Z,9.90
2019-05-30T13:55:45.013Z,10.10
2019-05-30T13:58:22.851Z,10.50
2019-05-30T14:01:03.795Z,10.40
2019-05-30T14:03:38.827Z,10.10
2019-05-30T14:06:16.240Z,10.20
2019-05-30T14:08:53.672Z,10.40
2019-05-30T14:11:34.014Z,10.30
2019-05-30T14:14:11.000Z,11.10
2019-05-30T14:16:50.799Z,10.10
2019-05-30T14:19:28.549Z,10.30
2019-05-30T14:22:07.176Z,10.20
2019-05-30T14:24:44.562Z,10.20
2019-05-30T14:29:58.740Z,10.00
2019-05-30T14:35:13.870Z,10.10
2019-05-30T14:37:53.496Z,9.90
2019-05-30T14:40:31.250Z,10.00
2019-05-30T14:43:09.341Z,9.90
2019-05-30T14:45:48.119Z,9.60
2019-05-30T14:48:25.608Z,10.00
2019-05-30T14:51:05.116Z,9.80
2019-05-30T14:53:44.820Z,10.20
2019-05-30T14:56:24.587Z,9.80
2019-05-30T14:59:04.951Z,9.60
2019-05-30T15:01:46.722Z,10.30
2019-05-30T15:04:25.985Z,10.00
2019-05-30T15:07:07.397Z,9.70
2019-05-30T15:09:47.425Z,9.50
2019-05-30T15:12:24.771Z,9.90
2019-05-30T15:15:02.658Z,10.00
2019-05-30T15:17:40.163Z,10.00
2019-05-30T15:20:20.250Z,9.90
2019-05-30T15:22:57.794Z,9.80
2019-05-30T15:25:35.379Z,10.00
2019-05-30T15:28:14.242Z,9.90
2019-05-30T15:30:53.004Z,9.80
2019-05-30T15:36:10.697Z,10.00
2019-05-30T15:41:23.028Z,9.60
2019-05-30T15:44:05.570Z,9.90
2019-05-30T15:46:43.375Z,10.10
2019-05-30T15:49:25.243Z,9.70
2019-05-30T15:52:02.705Z,10.10
2019-05-30T15:54:40.277Z,9.40
2019-05-30T15:57:17.804Z,9.80
2019-05-30T15:59:59.747Z,9.40
2019-05-30T16:02:38.444Z,9.40
2019-05-30T16:05:18.579Z,9.80
2019-05-30T16:07:59.065Z,9.70
2019-05-30T16:10:37.547Z,9.30
2019-05-30T16:13:19.389Z,9.60
2019-05-30T16:15:57.313Z,10.00
2019-05-30T16:18:38.215Z,9.30
2019-05-30T16:21:20.885Z,9.70
2019-05-30T16:23:58.472Z,9.70
2019-05-30T16:26:36.042Z,9.60
2019-05-30T16:29:13.675Z,10.20
2019-05-30T16:31:52.521Z,9.60
2019-05-30T16:34:32.817Z,9.40
2019-05-30T16:37:09.873Z,9.30
2019-05-30T16:40:02.200Z,9.60
2019-05-30T16:42:26.521Z,9.20
2019-05-30T16:45:06.011Z,9.40
2019-05-30T16:47:43.775Z,9.50
2019-05-30T16:50:22.654Z,9.60
2019-05-30T16:53:02.651Z,9.00
2019-05-30T16:58:17.794Z,9.70
2019-05-30T17:00:55.264Z,9.40
2019-05-30T17:03:34.541Z,9.20
2019-05-30T17:11:23.874Z,9.60
2019-05-30T17:14:03.029Z,9.50
2019-05-30T17:16:42.078Z,9.40
2019-05-30T17:19:22.296Z,9.40
2019-05-30T17:24:34.579Z,9.10
2019-05-30T17:27:12.117Z,8.90
2019-05-30T17:29:49.725Z,8.60
2019-05-30T17:32:27.903Z,9.20
2019-05-30T17:35:05.420Z,9.10
2019-05-30T17:37:42.787Z,9.30
2019-05-30T17:40:20.573Z,9.60
2019-05-30T17:42:59.416Z,9.60
2019-05-30T17:45:38.879Z,8.90
2019-05-30T17:53:35.867Z,9.10
2019-05-30T17:56:15.208Z,9.80
2019-05-30T17:58:54.360Z,9.30
2019-05-30T19:30:29.121Z,9.50
2019-05-30T20:35:22.248Z,9.30
2019-05-30T21:56:12.880Z,9.00
2019-05-30T22:19:55.894Z,10.70
2019-05-30T22:30:22.291Z,10.20
2019-05-30T22:33:12.966Z,10.50
2019-05-30T23:02:12.114Z,11.30
2019-05-30T23:56:58.589Z,12.40
